sensor_id;sensor_type;location;lat;lon;timestamp;pressure;altitude;pressure_sealevel;temperature;humidity
75692;BME280;64307;52.508;6.090;2023-02-10T00:01:21;103530.34;;;2.30;97.88
75692;BME280;64307;52.508;6.090;2023-02-10T00:03:47;103529.53;;;2.25;98.10
75692;BME280;64307;52.508;6.090;2023-02-10T00:06:14;103521.84;;;2.22;98.16
75692;BME280;64307;52.508;6.090;2023-02-10T00:08:40;103533.66;;;2.22;97.72
75692;BME280;64307;52.508;6.090;2023-02-10T00:11:08;103535.31;;;2.18;97.79
75692;BME280;64307;52.508;6.090;2023-02-10T00:13:36;103535.88;;;2.25;97.29
75692;BME280;64307;52.508;6.090;2023-02-10T00:16:03;103540.00;;;2.23;97.68
75692;BME280;64307;52.508;6.090;2023-02-10T00:18:29;103540.25;;;2.16;97.77
75692;BME280;64307;52.508;6.090;2023-02-10T00:20:54;103543.00;;;2.16;97.30
75692;BME280;64307;52.508;6.090;2023-02-10T00:23:20;103544.41;;;2.19;97.27
75692;BME280;64307;52.508;6.090;2023-02-10T00:25:45;103542.72;;;2.18;97.17
75692;BME280;64307;52.508;6.090;2023-02-10T00:28:10;103532.59;;;2.13;97.60
75692;BME280;64307;52.508;6.090;2023-02-10T00:30:36;103548.22;;;2.18;97.46
75692;BME280;64307;52.508;6.090;2023-02-10T00:33:02;103542.19;;;2.16;97.21
75692;BME280;64307;52.508;6.090;2023-02-10T00:35:27;103540.25;;;2.16;97.83
75692;BME280;64307;52.508;6.090;2023-02-10T00:37:52;103538.06;;;2.18;97.28
75692;BME280;64307;52.508;6.090;2023-02-10T00:40:18;103531.47;;;2.14;96.97
75692;BME280;64307;52.508;6.090;2023-02-10T00:42:43;103528.72;;;2.09;97.38
75692;BME280;64307;52.508;6.090;2023-02-10T00:45:09;103533.13;;;2.15;97.30
75692;BME280;64307;52.508;6.090;2023-02-10T00:47:34;103538.06;;;2.13;97.97
75692;BME280;64307;52.508;6.090;2023-02-10T00:50:00;103533.09;;;2.05;97.66
75692;BME280;64307;52.508;6.090;2023-02-10T00:52:25;103541.06;;;2.12;97.13
75692;BME280;64307;52.508;6.090;2023-02-10T00:54:50;103549.88;;;2.09;97.06
75692;BME280;64307;52.508;6.090;2023-02-10T00:57:16;103541.34;;;2.05;96.86
75692;BME280;64307;52.508;6.090;2023-02-10T00:59:41;103543.00;;;2.06;96.89
75692;BME280;64307;52.508;6.090;2023-02-10T01:02:07;103548.78;;;2.05;96.86
75692;BME280;64307;52.508;6.090;2023-02-10T01:04:32;103553.47;;;2.09;96.73
75692;BME280;64307;52.508;6.090;2023-02-10T01:06:57;103553.19;;;2.11;97.33
75692;BME280;64307;52.508;6.090;2023-02-10T01:09:23;103546.84;;;2.10;96.67
75692;BME280;64307;52.508;6.090;2023-02-10T01:11:48;103549.06;;;2.08;96.79
75692;BME280;64307;52.508;6.090;2023-02-10T01:14:14;103541.91;;;2.07;96.77
75692;BME280;64307;52.508;6.090;2023-02-10T01:16:40;103546.56;;;2.12;97.12
75692;BME280;64307;52.508;6.090;2023-02-10T01:19:05;103547.69;;;2.11;96.75
75692;BME280;64307;52.508;6.090;2023-02-10T01:21:31;103546.88;;;2.15;96.12
75692;BME280;64307;52.508;6.090;2023-02-10T01:23:56;103556.22;;;2.19;96.28
75692;BME280;64307;52.508;6.090;2023-02-10T01:26:22;103547.97;;;2.14;96.74
75692;BME280;64307;52.508;6.090;2023-02-10T01:28:47;103538.88;;;2.09;96.46
75692;BME280;64307;52.508;6.090;2023-02-10T01:31:15;103550.72;;;2.19;96.47
75692;BME280;64307;52.508;6.090;2023-02-10T01:33:41;103551.25;;;2.16;96.63
75692;BME280;64307;52.508;6.090;2023-02-10T01:36:09;103563.63;;;2.24;96.31
75692;BME280;64307;52.508;6.090;2023-02-10T01:38:35;103562.53;;;2.30;95.94
75692;BME280;64307;52.508;6.090;2023-02-10T01:41:01;103568.84;;;2.30;95.38
75692;BME280;64307;52.508;6.090;2023-02-10T01:43:26;103573.81;;;2.33;95.75
75692;BME280;64307;52.508;6.090;2023-02-10T01:45:52;103566.94;;;2.36;95.77
75692;BME280;64307;52.508;6.090;2023-02-10T01:48:17;103565.00;;;2.36;95.54
75692;BME280;64307;52.508;6.090;2023-02-10T01:50:57;103568.31;;;2.38;94.88
75692;BME280;64307;52.508;6.090;2023-02-10T01:53:24;103565.00;;;2.41;94.81
75692;BME280;64307;52.508;6.090;2023-02-10T01:55:52;103563.91;;;2.37;95.11
75692;BME280;64307;52.508;6.090;2023-02-10T01:58:21;103565.84;;;2.42;95.26
75692;BME280;64307;52.508;6.090;2023-02-10T02:00:48;103569.97;;;2.39;95.32
75692;BME280;64307;52.508;6.090;2023-02-10T02:03:14;103572.44;;;2.46;95.38
75692;BME280;64307;52.508;6.090;2023-02-10T02:05:41;103573.25;;;2.46;95.08
75692;BME280;64307;52.508;6.090;2023-02-10T02:08:11;103579.31;;;2.43;94.74
75692;BME280;64307;52.508;6.090;2023-02-10T02:16:34;103569.41;;;2.37;94.79
75692;BME280;64307;52.508;6.090;2023-02-10T02:19:22;103562.81;;;2.28;95.28
75692;BME280;64307;52.508;6.090;2023-02-10T02:27:03;103552.34;;;2.20;94.80
75692;BME280;64307;52.508;6.090;2023-02-10T02:32:22;103571.59;;;2.30;95.67
75692;BME280;64307;52.508;6.090;2023-02-10T02:35:05;103561.16;;;2.22;95.21
75692;BME280;64307;52.508;6.090;2023-02-10T02:37:41;103564.72;;;2.23;95.14
75692;BME280;64307;52.508;6.090;2023-02-10T02:40:08;103564.72;;;2.18;95.44
75692;BME280;64307;52.508;6.090;2023-02-10T02:42:34;103568.84;;;2.20;95.33
75692;BME280;64307;52.508;6.090;2023-02-10T02:45:08;103563.09;;;2.27;95.28
75692;BME280;64307;52.508;6.090;2023-02-10T02:50:35;103573.78;;;2.18;95.95
75692;BME280;64307;52.508;6.090;2023-02-10T03:01:21;103579.28;;;2.18;95.21
75692;BME280;64307;52.508;6.090;2023-02-10T03:03:52;103570.50;;;2.21;94.93
75692;BME280;64307;52.508;6.090;2023-02-10T03:06:18;103565.84;;;2.27;95.00
75692;BME280;64307;52.508;6.090;2023-02-10T03:08:43;103569.41;;;2.17;94.66
75692;BME280;64307;52.508;6.090;2023-02-10T03:11:08;103570.50;;;2.11;95.15
75692;BME280;64307;52.508;6.090;2023-02-10T03:13:34;103564.72;;;2.08;95.16
75692;BME280;64307;52.508;6.090;2023-02-10T03:15:59;103560.31;;;2.12;94.83
75692;BME280;64307;52.508;6.090;2023-02-10T03:18:25;103560.56;;;2.05;94.17
75692;BME280;64307;52.508;6.090;2023-02-10T03:20:51;103568.31;;;2.13;95.27
75692;BME280;64307;52.508;6.090;2023-02-10T03:23:16;103573.25;;;2.11;95.03
75692;BME280;64307;52.508;6.090;2023-02-10T03:25:44;103567.75;;;2.11;94.72
75692;BME280;64307;52.508;6.090;2023-02-10T03:28:11;103570.22;;;2.13;94.16
75692;BME280;64307;52.508;6.090;2023-02-10T03:30:37;103564.47;;;2.09;93.98
75692;BME280;64307;52.508;6.090;2023-02-10T03:33:03;103574.88;;;2.12;95.01
75692;BME280;64307;52.508;6.090;2023-02-10T03:35:28;103562.78;;;2.08;94.17
75692;BME280;64307;52.508;6.090;2023-02-10T03:37:53;103568.28;;;2.03;94.54
75692;BME280;64307;52.508;6.090;2023-02-10T03:40:19;103569.66;;;2.01;94.01
75692;BME280;64307;52.508;6.090;2023-02-10T03:42:44;103566.63;;;1.97;94.12
75692;BME280;64307;52.508;6.090;2023-02-10T03:45:10;103563.34;;;2.00;94.48
75692;BME280;64307;52.508;6.090;2023-02-10T03:47:35;103576.25;;;2.05;93.83
75692;BME280;64307;52.508;6.090;2023-02-10T03:50:02;103579.81;;;2.00;93.91
75692;BME280;64307;52.508;6.090;2023-02-10T03:52:27;103574.88;;;2.02;94.06
75692;BME280;64307;52.508;6.090;2023-02-10T03:54:52;103577.91;;;2.06;93.98
75692;BME280;64307;52.508;6.090;2023-02-10T03:57:18;103588.34;;;2.14;94.01
75692;BME280;64307;52.508;6.090;2023-02-10T03:59:44;103573.75;;;2.03;93.83
75692;BME280;64307;52.508;6.090;2023-02-10T04:02:09;103573.50;;;2.00;93.83
75692;BME280;64307;52.508;6.090;2023-02-10T04:04:35;103576.78;;;2.02;94.04
75692;BME280;64307;52.508;6.090;2023-02-10T04:07:02;103575.16;;;2.01;93.91
75692;BME280;64307;52.508;6.090;2023-02-10T04:09:27;103587.50;;;1.98;94.00
75692;BME280;64307;52.508;6.090;2023-02-10T04:11:53;103579.28;;;1.98;94.61
75692;BME280;64307;52.508;6.090;2023-02-10T04:14:18;103580.09;;;1.99;94.42
75692;BME280;64307;52.508;6.090;2023-02-10T04:16:43;103580.63;;;1.96;94.41
75692;BME280;64307;52.508;6.090;2023-02-10T04:19:09;103573.19;;;1.91;94.83
75692;BME280;64307;52.508;6.090;2023-02-10T04:21:34;103581.75;;;1.95;94.06
75692;BME280;64307;52.508;6.090;2023-02-10T04:23:59;103583.09;;;1.97;93.86
75692;BME280;64307;52.508;6.090;2023-02-10T04:26:25;103591.91;;;1.99;93.66
75692;BME280;64307;52.508;6.090;2023-02-10T04:28:51;103593.84;;;1.99;93.99
75692;BME280;64307;52.508;6.090;2023-02-10T04:31:17;103599.91;;;2.01;94.17
75692;BME280;64307;52.508;6.090;2023-02-10T04:33:43;103604.53;;;1.95;94.39
75692;BME280;64307;52.508;6.090;2023-02-10T04:36:08;103596.84;;;1.92;93.78
75692;BME280;64307;52.508;6.090;2023-02-10T04:38:34;103596.84;;;1.92;94.11
75692;BME280;64307;52.508;6.090;2023-02-10T04:41:01;103593.00;;;1.93;94.33
75692;BME280;64307;52.508;6.090;2023-02-10T04:43:28;103598.47;;;1.93;93.30
75692;BME280;64307;52.508;6.090;2023-02-10T04:45:53;103592.44;;;1.91;93.23
75692;BME280;64307;52.508;6.090;2023-02-10T04:48:18;103596.03;;;1.97;93.48
75692;BME280;64307;52.508;6.090;2023-02-10T04:50:46;103591.34;;;1.92;93.75
75692;BME280;64307;52.508;6.090;2023-02-10T04:53:11;103591.63;;;1.96;93.98
75692;BME280;64307;52.508;6.090;2023-02-10T04:55:37;103592.44;;;2.01;93.95
75692;BME280;64307;52.508;6.090;2023-02-10T04:58:02;103589.97;;;2.00;93.79
75692;BME280;64307;52.508;6.090;2023-02-10T05:00:27;103597.13;;;2.06;93.46
75692;BME280;64307;52.508;6.090;2023-02-10T05:02:53;103602.91;;;2.04;93.75
75692;BME280;64307;52.508;6.090;2023-02-10T05:05:18;103597.13;;;2.06;93.76
75692;BME280;64307;52.508;6.090;2023-02-10T05:07:44;103591.66;;;2.06;93.35
75692;BME280;64307;52.508;6.090;2023-02-10T05:10:10;103588.63;;;2.02;93.21
75692;BME280;64307;52.508;6.090;2023-02-10T05:12:35;103596.31;;;2.05;93.85
75692;BME280;64307;52.508;6.090;2023-02-10T05:15:00;103596.31;;;2.00;93.04
75692;BME280;64307;52.508;6.090;2023-02-10T05:17:26;103590.78;;;1.95;93.64
75692;BME280;64307;52.508;6.090;2023-02-10T05:19:51;103592.72;;;2.00;93.99
75692;BME280;64307;52.508;6.090;2023-02-10T05:22:16;103585.56;;;1.94;93.68
75692;BME280;64307;52.508;6.090;2023-02-10T05:24:41;103578.13;;;1.89;93.82
75692;BME280;64307;52.508;6.090;2023-02-10T05:27:07;103592.47;;;1.96;94.28
75692;BME280;64307;52.508;6.090;2023-02-10T05:29:33;103586.13;;;1.96;93.92
75692;BME280;64307;52.508;6.090;2023-02-10T05:31:58;103585.31;;;2.00;93.11
75692;BME280;64307;52.508;6.090;2023-02-10T05:34:23;103590.53;;;1.97;93.93
75692;BME280;64307;52.508;6.090;2023-02-10T05:36:49;103593.56;;;2.00;94.16
75692;BME280;64307;52.508;6.090;2023-02-10T05:39:15;103592.44;;;1.91;93.94
75692;BME280;64307;52.508;6.090;2023-02-10T05:41:53;103597.13;;;1.91;94.08
75692;BME280;64307;52.508;6.090;2023-02-10T05:44:19;103594.09;;;1.92;94.00
75692;BME280;64307;52.508;6.090;2023-02-10T05:46:45;103599.31;;;1.89;93.63
75692;BME280;64307;52.508;6.090;2023-02-10T05:49:10;103600.13;;;1.84;93.65
75692;BME280;64307;52.508;6.090;2023-02-10T05:51:35;103600.41;;;1.83;94.86
75692;BME280;64307;52.508;6.090;2023-02-10T05:54:01;103606.44;;;1.85;94.04
75692;BME280;64307;52.508;6.090;2023-02-10T05:56:26;103599.28;;;1.84;94.44
75692;BME280;64307;52.508;6.090;2023-02-10T05:58:51;103602.91;;;1.94;94.00
75692;BME280;64307;52.508;6.090;2023-02-10T06:01:17;103590.25;;;1.93;93.69
75692;BME280;64307;52.508;6.090;2023-02-10T06:03:42;103587.78;;;2.02;94.08
75692;BME280;64307;52.508;6.090;2023-02-10T06:06:07;103588.63;;;2.02;93.79
75692;BME280;64307;52.508;6.090;2023-02-10T06:08:33;103579.81;;;2.00;93.83
75692;BME280;64307;52.508;6.090;2023-02-10T06:10:58;103582.56;;;2.05;93.46
75692;BME280;64307;52.508;6.090;2023-02-10T06:13:23;103585.59;;;2.04;94.04
75692;BME280;64307;52.508;6.090;2023-02-10T06:15:49;103593.84;;;2.09;94.10
75692;BME280;64307;52.508;6.090;2023-02-10T06:18:14;103599.38;;;2.19;93.97
75692;BME280;64307;52.508;6.090;2023-02-10T06:20:40;103595.78;;;2.28;93.32
75692;BME280;64307;52.508;6.090;2023-02-10T06:23:05;103603.50;;;2.31;92.90
75692;BME280;64307;52.508;6.090;2023-02-10T06:25:31;103602.69;;;2.36;92.91
75692;BME280;64307;52.508;6.090;2023-02-10T06:27:56;103597.72;;;2.43;92.79
75692;BME280;64307;52.508;6.090;2023-02-10T06:30:22;103606.81;;;2.43;92.36
75692;BME280;64307;52.508;6.090;2023-02-10T06:32:47;103606.78;;;2.48;92.82
75692;BME280;64307;52.508;6.090;2023-02-10T06:35:13;103606.25;;;2.41;92.56
75692;BME280;64307;52.508;6.090;2023-02-10T06:37:38;103624.16;;;2.44;92.71
75692;BME280;64307;52.508;6.090;2023-02-10T06:40:05;103623.59;;;2.47;92.26
75692;BME280;64307;52.508;6.090;2023-02-10T06:42:30;103614.78;;;2.55;92.10
75692;BME280;64307;52.508;6.090;2023-02-10T06:44:56;103617.56;;;2.50;92.32
75692;BME280;64307;52.508;6.090;2023-02-10T06:47:21;103624.41;;;2.53;92.18
75692;BME280;64307;52.508;6.090;2023-02-10T06:49:47;103618.91;;;2.58;92.10
75692;BME280;64307;52.508;6.090;2023-02-10T06:52:12;103618.94;;;2.63;92.35
75692;BME280;64307;52.508;6.090;2023-02-10T06:54:37;103618.63;;;2.69;91.54
75692;BME280;64307;52.508;6.090;2023-02-10T06:57:03;103614.50;;;2.62;91.83
75692;BME280;64307;52.508;6.090;2023-02-10T06:59:28;103608.47;;;2.60;91.84
75692;BME280;64307;52.508;6.090;2023-02-10T07:01:53;103613.13;;;2.64;92.29
75692;BME280;64307;52.508;6.090;2023-02-10T07:04:25;103613.13;;;2.69;92.72
75692;BME280;64307;52.508;6.090;2023-02-10T07:06:50;103616.16;;;2.73;92.64
75692;BME280;64307;52.508;6.090;2023-02-10T07:09:15;103610.94;;;2.61;92.84
75692;BME280;64307;52.508;6.090;2023-02-10T07:11:42;103611.78;;;2.67;93.07
75692;BME280;64307;52.508;6.090;2023-02-10T07:14:07;103609.28;;;2.70;92.47
75692;BME280;64307;52.508;6.090;2023-02-10T07:16:32;103602.97;;;2.75;92.30
75692;BME280;64307;52.508;6.090;2023-02-10T07:18:58;103621.66;;;2.78;92.29
75692;BME280;64307;52.508;6.090;2023-02-10T07:21:24;103627.44;;;2.86;92.02
75692;BME280;64307;52.508;6.090;2023-02-10T07:23:49;103625.50;;;2.82;92.18
75692;BME280;64307;52.508;6.090;2023-02-10T07:26:15;103627.16;;;2.83;91.89
75692;BME280;64307;52.508;6.090;2023-02-10T07:28:43;103640.91;;;2.93;92.19
75692;BME280;64307;52.508;6.090;2023-02-10T07:31:09;103640.88;;;2.98;91.99
75692;BME280;64307;52.508;6.090;2023-02-10T07:33:35;103640.88;;;3.08;91.40
75692;BME280;64307;52.508;6.090;2023-02-10T07:36:01;103648.84;;;3.19;90.81
75692;BME280;64307;52.508;6.090;2023-02-10T07:38:27;103652.41;;;3.30;90.39
75692;BME280;64307;52.508;6.090;2023-02-10T07:40:53;103655.44;;;3.33;90.52
75692;BME280;64307;52.508;6.090;2023-02-10T07:43:18;103658.44;;;3.42;89.84
75692;BME280;64307;52.508;6.090;2023-02-10T07:45:43;103651.84;;;3.38;89.68
75692;BME280;64307;52.508;6.090;2023-02-10T07:48:09;103654.56;;;3.43;89.45
75692;BME280;64307;52.508;6.090;2023-02-10T07:50:35;103639.13;;;3.52;89.21
75692;BME280;64307;52.508;6.090;2023-02-10T07:53:00;103644.59;;;3.57;88.88
75692;BME280;64307;52.508;6.090;2023-02-10T07:55:25;103651.44;;;3.70;88.60
75692;BME280;64307;52.508;6.090;2023-02-10T07:57:51;103652.31;;;3.65;88.79
75692;BME280;64307;52.508;6.090;2023-02-10T08:00:18;103668.84;;;3.65;88.79
75692;BME280;64307;52.508;6.090;2023-02-10T08:02:44;103651.97;;;3.72;88.67
75692;BME280;64307;52.508;6.090;2023-02-10T08:05:09;103654.34;;;3.98;87.61
75692;BME280;64307;52.508;6.090;2023-02-10T08:07:35;103659.16;;;4.27;86.65
75692;BME280;64307;52.508;6.090;2023-02-10T08:10:01;103660.53;;;4.96;83.46
75692;BME280;64307;52.508;6.090;2023-02-10T08:12:26;103654.69;;;4.69;84.31
75692;BME280;64307;52.508;6.090;2023-02-10T08:14:51;103646.09;;;4.37;85.25
75692;BME280;64307;52.508;6.090;2023-02-10T08:17:16;103652.19;;;4.39;85.80
75692;BME280;64307;52.508;6.090;2023-02-10T08:19:42;103655.41;;;4.46;85.77
75692;BME280;64307;52.508;6.090;2023-02-10T08:22:07;103656.47;;;4.55;85.59
75692;BME280;64307;52.508;6.090;2023-02-10T08:24:33;103650.69;;;4.52;85.29
75692;BME280;64307;52.508;6.090;2023-02-10T08:26:58;103638.47;;;4.63;85.02
75692;BME280;64307;52.508;6.090;2023-02-10T08:29:24;103646.41;;;4.69;84.99
75692;BME280;64307;52.508;6.090;2023-02-10T08:31:50;103654.31;;;4.81;84.44
75692;BME280;64307;52.508;6.090;2023-02-10T08:34:17;103643.97;;;4.96;84.57
75692;BME280;64307;52.508;6.090;2023-02-10T08:36:44;103644.63;;;5.83;80.32
75692;BME280;64307;52.508;6.090;2023-02-10T08:39:10;103651.22;;;6.48;78.30
75692;BME280;64307;52.508;6.090;2023-02-10T08:41:35;103654.50;;;6.82;76.13
75692;BME280;64307;52.508;6.090;2023-02-10T08:44:00;103651.88;;;7.36;74.66
75692;BME280;64307;52.508;6.090;2023-02-10T08:46:26;103639.41;;;8.51;70.34
75692;BME280;64307;52.508;6.090;2023-02-10T08:48:51;103652.31;;;9.00;68.25
75692;BME280;64307;52.508;6.090;2023-02-10T08:51:17;103660.34;;;9.01;66.80
75692;BME280;64307;52.508;6.090;2023-02-10T08:53:43;103657.81;;;9.53;66.04
75692;BME280;64307;52.508;6.090;2023-02-10T08:56:09;103652.34;;;10.60;62.38
75692;BME280;64307;52.508;6.090;2023-02-10T08:58:35;103640.47;;;10.98;61.03
75692;BME280;64307;52.508;6.090;2023-02-10T09:01:01;103649.91;;;11.69;58.41
75692;BME280;64307;52.508;6.090;2023-02-10T09:03:32;103645.78;;;10.48;61.54
75692;BME280;64307;52.508;6.090;2023-02-10T09:05:57;103642.78;;;8.70;67.69
75692;BME280;64307;52.508;6.090;2023-02-10T09:08:22;103651.69;;;7.74;71.80
75692;BME280;64307;52.508;6.090;2023-02-10T09:10:48;103659.28;;;6.95;74.75
75692;BME280;64307;52.508;6.090;2023-02-10T09:13:13;103653.81;;;6.58;77.49
75692;BME280;64307;52.508;6.090;2023-02-10T09:15:40;103654.34;;;6.41;77.65
75692;BME280;64307;52.508;6.090;2023-02-10T09:18:07;103651.00;;;6.44;77.17
75692;BME280;64307;52.508;6.090;2023-02-10T09:20:33;103643.56;;;6.58;77.00
75692;BME280;64307;52.508;6.090;2023-02-10T09:22:58;103643.28;;;8.14;72.31
75692;BME280;64307;52.508;6.090;2023-02-10T09:25:23;103641.50;;;9.60;66.43
75692;BME280;64307;52.508;6.090;2023-02-10T09:27:51;103644.78;;;11.79;58.96
75692;BME280;64307;52.508;6.090;2023-02-10T09:30:17;103631.25;;;14.93;50.61
75692;BME280;64307;52.508;6.090;2023-02-10T09:32:42;103644.16;;;16.22;46.94
75692;BME280;64307;52.508;6.090;2023-02-10T09:35:07;103635.63;;;16.73;45.31
75692;BME280;64307;52.508;6.090;2023-02-10T09:37:32;103637.00;;;16.44;43.99
75692;BME280;64307;52.508;6.090;2023-02-10T09:39:58;103632.63;;;17.72;41.80
75692;BME280;64307;52.508;6.090;2023-02-10T09:45:19;103641.56;;;16.68;43.03
75692;BME280;64307;52.508;6.090;2023-02-10T09:47:50;103653.69;;;16.18;44.47
75692;BME280;64307;52.508;6.090;2023-02-10T09:55:34;103639.47;;;17.48;40.33
75692;BME280;64307;52.508;6.090;2023-02-10T09:58:15;103649.06;;;17.92;39.91
75692;BME280;64307;52.508;6.090;2023-02-10T10:00:44;103645.44;;;17.92;40.51
75692;BME280;64307;52.508;6.090;2023-02-10T10:03:16;103642.34;;;18.56;38.88
75692;BME280;64307;52.508;6.090;2023-02-10T10:11:35;103653.03;;;17.43;40.55
75692;BME280;64307;52.508;6.090;2023-02-10T10:14:01;103651.44;;;19.09;36.84
75692;BME280;64307;52.508;6.090;2023-02-10T10:21:56;103644.38;;;19.73;35.44
75692;BME280;64307;52.508;6.090;2023-02-10T10:24:29;103643.69;;;20.52;34.07
75692;BME280;64307;52.508;6.090;2023-02-10T10:27:11;103647.41;;;18.73;37.28
75692;BME280;64307;52.508;6.090;2023-02-10T10:32:17;103647.47;;;20.87;33.69
75692;BME280;64307;52.508;6.090;2023-02-10T10:34:53;103648.25;;;20.81;33.86
75692;BME280;64307;52.508;6.090;2023-02-10T10:37:21;103654.28;;;19.97;35.44
75692;BME280;64307;52.508;6.090;2023-02-10T10:39:54;103652.75;;;20.96;33.03
75692;BME280;64307;52.508;6.090;2023-02-10T10:42:50;103650.44;;;21.54;32.45
75692;BME280;64307;52.508;6.090;2023-02-10T10:45:21;103658.78;;;20.77;33.44
75692;BME280;64307;52.508;6.090;2023-02-10T10:48:05;103660.53;;;22.22;30.75
75692;BME280;64307;52.508;6.090;2023-02-10T10:50:33;103657.38;;;19.34;36.19
75692;BME280;64307;52.508;6.090;2023-02-10T10:53:03;103654.06;;;20.19;34.65
75692;BME280;64307;52.508;6.090;2023-02-10T10:55:49;103655.16;;;20.87;33.87
75692;BME280;64307;52.508;6.090;2023-02-10T10:58:23;103648.53;;;20.51;34.17
75692;BME280;64307;52.508;6.090;2023-02-10T11:00:56;103645.97;;;21.46;32.38
75692;BME280;64307;52.508;6.090;2023-02-10T11:03:22;103647.63;;;19.75;35.50
75692;BME280;64307;52.508;6.090;2023-02-10T11:06:04;103650.28;;;19.54;35.67
75692;BME280;64307;52.508;6.090;2023-02-10T11:11:11;103642.72;;;21.19;32.58
75692;BME280;64307;52.508;6.090;2023-02-10T11:13:39;103638.75;;;19.77;34.93
75692;BME280;64307;52.508;6.090;2023-02-10T11:16:09;103635.16;;;18.96;37.16
75692;BME280;64307;52.508;6.090;2023-02-10T11:18:36;103642.50;;;20.60;34.62
75692;BME280;64307;52.508;6.090;2023-02-10T11:21:07;103646.19;;;19.48;36.05
75692;BME280;64307;52.508;6.090;2023-02-10T11:23:46;103633.66;;;20.00;35.60
75692;BME280;64307;52.508;6.090;2023-02-10T11:26:22;103631.84;;;20.32;34.69
75692;BME280;64307;52.508;6.090;2023-02-10T11:28:49;103613.50;;;17.58;38.79
75692;BME280;64307;52.508;6.090;2023-02-10T11:34:00;103612.88;;;19.75;35.62
75692;BME280;64307;52.508;6.090;2023-02-10T11:36:37;103617.63;;;17.19;40.44
75692;BME280;64307;52.508;6.090;2023-02-10T11:39:38;103620.22;;;13.33;50.25
75692;BME280;64307;52.508;6.090;2023-02-10T11:42:26;103623.97;;;13.37;51.38
75692;BME280;64307;52.508;6.090;2023-02-10T11:45:00;103626.94;;;13.07;52.39
75692;BME280;64307;52.508;6.090;2023-02-10T11:47:31;103619.91;;;13.01;52.32
75692;BME280;64307;52.508;6.090;2023-02-10T11:49:57;103611.97;;;13.03;51.90
75692;BME280;64307;52.508;6.090;2023-02-10T11:52:26;103620.31;;;13.24;51.22
75692;BME280;64307;52.508;6.090;2023-02-10T11:54:53;103617.09;;;13.58;50.12
75692;BME280;64307;52.508;6.090;2023-02-10T12:06:27;103615.88;;;12.46;52.69
75692;BME280;64307;52.508;6.090;2023-02-10T12:09:02;103618.69;;;12.25;52.34
75692;BME280;64307;52.508;6.090;2023-02-10T12:17:01;103612.84;;;12.83;50.65
75692;BME280;64307;52.508;6.090;2023-02-10T12:22:26;103624.16;;;12.33;51.70
75692;BME280;64307;52.508;6.090;2023-02-10T12:25:02;103611.16;;;11.29;55.41
75692;BME280;64307;52.508;6.090;2023-02-10T12:27:59;103601.81;;;11.72;53.67
75692;BME280;64307;52.508;6.090;2023-02-10T12:39:40;103594.97;;;11.52;53.91
75692;BME280;64307;52.508;6.090;2023-02-10T12:45:26;103601.31;;;11.32;54.46
75692;BME280;64307;52.508;6.090;2023-02-10T12:48:14;103588.47;;;11.02;55.05
75692;BME280;64307;52.508;6.090;2023-02-10T12:50:51;103582.78;;;10.90;54.68
75692;BME280;64307;52.508;6.090;2023-02-10T12:53:31;103579.63;;;11.00;54.93
75692;BME280;64307;52.508;6.090;2023-02-10T12:56:05;103569.31;;;10.92;55.15
75692;BME280;64307;52.508;6.090;2023-02-10T12:58:46;103566.13;;;11.10;53.79
75692;BME280;64307;52.508;6.090;2023-02-10T13:01:19;103556.09;;;11.18;52.86
75692;BME280;64307;52.508;6.090;2023-02-10T13:03:47;103544.22;;;10.92;54.82
75692;BME280;64307;52.508;6.090;2023-02-10T13:06:26;103538.44;;;10.97;54.84
75692;BME280;64307;52.508;6.090;2023-02-10T13:09:17;103545.41;;;10.73;54.78
75692;BME280;64307;52.508;6.090;2023-02-10T13:12:12;103538.13;;;10.18;56.37
75692;BME280;64307;52.508;6.090;2023-02-10T13:14:40;103544.66;;;9.96;56.92
75692;BME280;64307;52.508;6.090;2023-02-10T13:17:07;103534.31;;;9.88;57.69
75692;BME280;64307;52.508;6.090;2023-02-10T13:19:45;103516.81;;;9.96;56.38
75692;BME280;64307;52.508;6.090;2023-02-10T13:30:36;103503.41;;;10.15;56.28
75692;BME280;64307;52.508;6.090;2023-02-10T13:36:11;103491.59;;;9.75;57.96
75692;BME280;64307;52.508;6.090;2023-02-10T13:38:38;103492.75;;;9.83;58.66
75692;BME280;64307;52.508;6.090;2023-02-10T13:41:03;103502.44;;;10.11;58.02
75692;BME280;64307;52.508;6.090;2023-02-10T13:43:55;103494.03;;;10.37;57.22
75692;BME280;64307;52.508;6.090;2023-02-10T13:46:27;103505.69;;;10.22;57.55
75692;BME280;64307;52.508;6.090;2023-02-10T13:48:57;103503.88;;;10.00;57.88
75692;BME280;64307;52.508;6.090;2023-02-10T13:51:31;103501.88;;;9.75;58.42
75692;BME280;64307;52.508;6.090;2023-02-10T13:53:57;103504.69;;;9.66;58.52
75692;BME280;64307;52.508;6.090;2023-02-10T14:03:56;103490.69;;;9.24;57.21
75692;BME280;64307;52.508;6.090;2023-02-10T14:06:31;103498.72;;;9.25;57.64
75692;BME280;64307;52.508;6.090;2023-02-10T14:09:47;103487.75;;;9.29;56.31
75692;BME280;64307;52.508;6.090;2023-02-10T14:11:48;103476.28;;;9.22;55.13
75692;BME280;64307;52.508;6.090;2023-02-10T14:14:37;103471.38;;;9.19;55.21
75692;BME280;64307;52.508;6.090;2023-02-10T14:17:20;103473.81;;;9.12;55.29
75692;BME280;64307;52.508;6.090;2023-02-10T14:19:50;103487.91;;;9.24;55.95
75692;BME280;64307;52.508;6.090;2023-02-10T14:22:31;103480.72;;;9.23;56.00
75692;BME280;64307;52.508;6.090;2023-02-10T14:25:16;103478.78;;;9.32;55.02
75692;BME280;64307;52.508;6.090;2023-02-10T14:27:50;103464.19;;;9.26;54.92
75692;BME280;64307;52.508;6.090;2023-02-10T14:30:24;103453.34;;;9.07;56.49
75692;BME280;64307;52.508;6.090;2023-02-10T14:32:52;103472.16;;;9.02;56.17
75692;BME280;64307;52.508;6.090;2023-02-10T14:35:20;103500.13;;;9.05;56.62
75692;BME280;64307;52.508;6.090;2023-02-10T14:37:50;103503.88;;;9.09;57.00
75692;BME280;64307;52.508;6.090;2023-02-10T14:40:18;103489.28;;;8.95;57.01
75692;BME280;64307;52.508;6.090;2023-02-10T14:42:44;103494.38;;;9.02;57.30
75692;BME280;64307;52.508;6.090;2023-02-10T14:45:21;103495.19;;;8.94;57.37